East Jewett, New York
Current Conditions -  °F | °C
As of 8:51 AM on Wednesday 28 Jan 2015 (Local Time) from KALB Reporting Station
Broken Clouds Broken Clouds  
Wind Chill: -20°   Ceiling: 9000
Heat Index: -12°   Visibility: 10mi
Dew Point: -19°   Wind: 12mph
Humidity: 54%   Direction: 340°NNW
Pressure: 30.1"   Gusts: NA
Location:  42.23°N, 74.15°W
Report Text: KALB 281351Z 34010KT 10SM FEW045 BKN090 BKN110 M12/M19 A3010 RMK AO2 SLP200 T11171194
Loading
Personal Weather Stations






























Interactive Weather Map New forecast layout! Learn more

10-Day Weather Forecast

Advertisements
Track Severe Weather on mobile